createdAt,value
2022-11-11T00:01:13.792Z,98729.38
2022-11-11T00:04:18.206Z,98739.16
2022-11-11T00:07:22.780Z,98746.31
2022-11-11T00:10:28.803Z,98732.41
2022-11-11T00:13:34.467Z,98734.19
2022-11-11T00:16:57.161Z,98730.22
2022-11-11T00:20:23.110Z,98726.19
2022-11-11T00:23:47.672Z,98737.59
2022-11-11T00:26:52.315Z,98741.31
2022-11-11T00:29:56.968Z,98743.25
2022-11-11T00:33:01.379Z,98749.56
2022-11-11T00:36:09.169Z,98742.53
2022-11-11T00:39:13.814Z,98743.34
2022-11-11T00:42:18.577Z,98742.53
2022-11-11T00:45:23.184Z,98735.94
2022-11-11T00:48:45.817Z,98731.91
2022-11-11T00:51:49.807Z,98722.84
2022-11-11T00:54:54.111Z,98716.78
2022-11-11T00:57:58.503Z,98717.50
2022-11-11T01:01:03.210Z,98714.44
2022-11-11T01:04:07.691Z,98711.38
2022-11-11T01:07:12.129Z,98712.94
2022-11-11T01:10:37.233Z,98716.91
2022-11-11T01:13:42.102Z,98721.88
2022-11-11T01:16:46.125Z,98727.09
2022-11-11T01:19:50.241Z,98726.97
2022-11-11T01:22:54.518Z,98724.22
2022-11-11T01:26:08.140Z,98727.41
2022-11-11T01:29:12.824Z,98736.59
2022-11-11T01:32:17.416Z,98728.09
2022-11-11T01:35:21.866Z,98734.94
2022-11-11T01:38:26.653Z,98738.66
2022-11-11T01:41:35.241Z,98741.28
2022-11-11T01:44:47.165Z,98740.59
2022-11-11T01:48:23.763Z,98750.34
2022-11-11T01:51:38.327Z,98758.88
2022-11-11T01:54:48.489Z,98762.16
2022-11-11T01:57:59.567Z,98759.69
2022-11-11T02:01:04.133Z,98765.31
2022-11-11T02:04:27.752Z,98767.34
2022-11-11T02:07:33.755Z,98768.31
2022-11-11T02:10:43.271Z,98764.88
2022-11-11T02:14:06.488Z,98769.16
2022-11-11T02:17:14.062Z,98772.72
2022-11-11T02:20:28.127Z,98771.75
2022-11-11T02:24:10.214Z,98765.00
2022-11-11T02:27:17.301Z,98763.22
2022-11-11T02:30:22.325Z,98767.34
2022-11-11T02:33:26.827Z,98763.63
2022-11-11T02:36:32.783Z,98755.94
2022-11-11T02:40:02.628Z,98755.81
2022-11-11T02:43:08.165Z,98762.69
2022-11-11T02:46:12.568Z,98778.09
2022-11-11T02:49:17.057Z,98768.38
2022-11-11T02:52:21.384Z,98759.44
2022-11-11T02:55:25.850Z,98760.53
2022-11-11T02:58:30.354Z,98763.25
2022-11-11T03:01:34.966Z,98763.25
2022-11-11T03:04:39.535Z,98757.22
2022-11-11T03:07:44.517Z,98759.41
2022-11-11T03:10:48.866Z,98769.38
2022-11-11T03:13:54.850Z,98764.69
2022-11-11T03:17:17.922Z,98760.94
2022-11-11T03:20:40.976Z,98766.69
2022-11-11T03:23:45.207Z,98762.00
2022-11-11T03:26:49.480Z,98770.09
2022-11-11T03:29:53.860Z,98776.25
2022-11-11T03:33:00.150Z,98779.69
2022-11-11T03:36:04.736Z,98778.72
2022-11-11T03:39:09.030Z,98779.44
2022-11-11T03:42:13.506Z,98780.53
2022-11-11T03:45:17.948Z,98785.75
2022-11-11T03:48:23.134Z,98792.88
2022-11-11T03:51:27.756Z,98792.19
2022-11-11T03:54:32.153Z,98780.34
2022-11-11T03:57:41.007Z,98782.50
2022-11-11T04:00:45.666Z,98773.16
2022-11-11T04:04:08.666Z,98775.91
2022-11-11T04:07:31.450Z,98774.91
2022-11-11T04:10:36.203Z,98780.13
2022-11-11T04:14:06.158Z,98782.75
2022-11-11T04:17:10.555Z,98785.34
2022-11-11T04:20:44.088Z,98794.16
2022-11-11T04:23:48.671Z,98791.78
2022-11-11T04:26:55.330Z,98810.19
2022-11-11T04:29:59.720Z,98790.13
2022-11-11T04:33:04.151Z,98791.78
2022-11-11T04:36:08.791Z,98803.88
2022-11-11T04:39:31.885Z,98808.97
2022-11-11T04:42:37.232Z,98810.50
2022-11-11T04:45:41.542Z,98811.44
2022-11-11T04:48:45.922Z,98812.66
2022-11-11T04:52:08.921Z,98807.72
2022-11-11T04:55:31.588Z,98810.56
2022-11-11T04:58:35.876Z,98812.59
2022-11-11T05:01:58.857Z,98817.00
2022-11-11T05:05:03.475Z,98822.22
2022-11-11T05:08:26.683Z,98827.44
2022-11-11T05:11:33.621Z,98831.94
2022-11-11T05:14:56.659Z,98834.78
2022-11-11T05:18:19.423Z,98837.66
2022-11-11T05:21:28.067Z,98837.78
2022-11-11T05:24:51.059Z,98838.88
2022-11-11T05:27:59.070Z,98838.97
2022-11-11T05:31:03.462Z,98843.25
2022-11-11T05:34:08.073Z,98842.41
2022-11-11T05:37:13.158Z,98852.72
2022-11-11T05:40:17.410Z,98858.53
2022-11-11T05:43:21.750Z,98859.91
2022-11-11T05:46:26.702Z,98864.75
2022-11-11T05:49:31.377Z,98871.50
2022-11-11T05:52:35.887Z,98865.56
2022-11-11T05:55:40.172Z,98866.56
2022-11-11T05:58:49.529Z,98881.22
2022-11-11T06:01:54.649Z,98877.69
2022-11-11T06:04:59.301Z,98887.16
2022-11-11T06:08:05.506Z,98894.84
2022-11-11T06:11:09.916Z,98892.25
2022-11-11T06:14:14.074Z,98899.13
2022-11-11T06:17:18.382Z,98895.44
2022-11-11T06:20:22.464Z,98896.16
2022-11-11T06:23:28.593Z,98890.13
2022-11-11T06:26:32.803Z,98887.59
2022-11-11T06:29:37.130Z,98885.13
2022-11-11T06:32:41.432Z,98882.53
2022-11-11T06:35:45.708Z,98884.31
2022-11-11T06:38:50.051Z,98880.75
2022-11-11T06:41:54.511Z,98879.69
2022-11-11T06:44:58.868Z,98867.31
2022-11-11T06:48:04.441Z,98872.44
2022-11-11T06:51:11.136Z,98873.97
2022-11-11T06:54:15.240Z,98864.22
2022-11-11T06:57:19.531Z,98865.72
2022-11-11T07:00:23.964Z,98858.63
2022-11-11T07:03:28.603Z,98856.72
2022-11-11T07:06:33.022Z,98854.81
2022-11-11T07:09:37.181Z,98849.59
2022-11-11T07:12:42.335Z,98850.28
2022-11-11T07:15:47.068Z,98852.50
2022-11-11T07:18:52.290Z,98859.25
2022-11-11T07:21:56.723Z,98865.88
2022-11-11T07:25:01.136Z,98868.09
2022-11-11T07:28:05.489Z,98870.34
2022-11-11T07:31:10.005Z,98881.09
2022-11-11T07:34:14.329Z,98879.63
2022-11-11T07:37:18.868Z,98873.22
2022-11-11T07:40:23.248Z,98877.06
2022-11-11T07:43:27.599Z,98888.78
2022-11-11T07:46:31.825Z,98879.63
2022-11-11T07:49:36.666Z,98880.75
2022-11-11T07:52:41.587Z,98886.28
2022-11-11T07:55:46.698Z,98885.63
2022-11-11T07:58:51.090Z,98887.72
2022-11-11T08:01:55.511Z,98892.69
2022-11-11T08:04:59.873Z,98900.94
2022-11-11T08:08:08.796Z,98903.19
2022-11-11T08:11:15.915Z,98902.78
2022-11-11T08:14:20.382Z,98913.09
2022-11-11T08:17:25.070Z,98920.94
2022-11-11T08:20:29.997Z,98923.44
2022-11-11T08:26:58.688Z,98913.56
2022-11-11T08:30:04.836Z,98913.03
2022-11-11T08:33:32.340Z,98915.81
2022-11-11T08:36:34.416Z,98916.81
2022-11-11T08:39:39.132Z,98914.19
2022-11-11T08:42:43.672Z,98911.47
2022-11-11T08:45:48.767Z,98907.09
2022-11-11T08:48:53.057Z,98905.84
2022-11-11T08:51:57.372Z,98908.59
2022-11-11T08:55:01.713Z,98908.63
2022-11-11T08:58:07.244Z,98907.75
2022-11-11T09:01:13.880Z,98918.25
2022-11-11T09:07:42.922Z,98923.31
2022-11-11T09:10:47.315Z,98933.66
2022-11-11T09:13:51.652Z,98937.75
2022-11-11T09:16:56.188Z,98934.41
2022-11-11T09:20:00.615Z,98939.63
2022-11-11T09:23:05.243Z,98960.56
2022-11-11T09:26:09.321Z,98947.31
2022-11-11T09:29:13.757Z,98953.34
2022-11-11T09:32:18.129Z,98954.94
2022-11-11T09:35:22.630Z,98951.44
2022-11-11T09:38:26.788Z,98947.94
2022-11-11T09:42:06.803Z,98954.97
2022-11-11T09:45:31.376Z,98954.38
2022-11-11T09:49:12.816Z,98948.22
2022-11-11T09:52:26.335Z,98947.34
2022-11-11T09:55:30.626Z,98941.34
2022-11-11T09:58:41.443Z,98927.44
2022-11-11T10:01:50.635Z,98928.22
2022-11-11T10:05:02.786Z,98926.19
2022-11-11T10:08:13.555Z,98919.03
2022-11-11T10:11:44.670Z,98930.13
2022-11-11T10:14:51.255Z,98928.91
2022-11-11T10:18:05.311Z,98931.28
2022-11-11T10:21:16.694Z,98933.00
2022-11-11T10:24:50.975Z,98931.06
2022-11-11T10:27:59.790Z,98922.91
2022-11-11T10:31:12.905Z,98928.91
2022-11-11T10:34:19.908Z,98942.06
2022-11-11T10:38:02.034Z,98937.84
2022-11-11T10:41:30.313Z,98929.16
2022-11-11T10:44:36.369Z,98933.47
2022-11-11T10:48:00.274Z,98921.81
2022-11-11T10:51:06.171Z,98927.75
2022-11-11T10:54:16.662Z,98926.66
2022-11-11T10:57:29.563Z,98938.53
2022-11-11T11:00:42.624Z,98939.03
2022-11-11T11:03:55.503Z,98937.78
2022-11-11T11:07:03.740Z,98932.03
2022-11-11T11:10:16.983Z,98939.78
2022-11-11T11:13:34.329Z,98937.78
2022-11-11T11:16:51.270Z,98932.16
2022-11-11T11:20:16.840Z,98932.66
2022-11-11T11:23:37.260Z,98921.94
2022-11-11T11:26:49.779Z,98929.50
2022-11-11T11:30:13.314Z,98941.69
2022-11-11T11:33:20.904Z,98941.66
2022-11-11T11:36:25.351Z,98932.72
2022-11-11T11:39:37.340Z,98930.72
2022-11-11T11:42:41.909Z,98929.69
2022-11-11T11:45:55.920Z,98925.19
2022-11-11T11:49:18.329Z,98920.69
2022-11-11T11:52:48.783Z,98917.00
2022-11-11T11:56:04.934Z,98915.66
2022-11-11T11:59:21.394Z,98920.91
2022-11-11T12:03:00.257Z,98905.72
2022-11-11T12:06:34.251Z,98907.47
2022-11-11T12:09:56.947Z,98912.88
2022-11-11T12:13:33.813Z,98929.69
2022-11-11T12:16:47.289Z,98929.81
2022-11-11T12:20:20.861Z,98924.00
2022-11-11T12:23:28.071Z,98925.09
2022-11-11T12:26:47.755Z,98931.22
2022-11-11T12:29:58.392Z,98933.34
2022-11-11T12:33:10.179Z,98939.72
2022-11-11T12:36:35.091Z,98942.66
2022-11-11T12:40:01.022Z,98935.03
2022-11-11T12:43:26.459Z,98937.78
2022-11-11T12:47:12.879Z,98936.25
2022-11-11T12:50:39.171Z,98937.53
2022-11-11T12:53:43.802Z,98935.53
2022-11-11T12:57:06.752Z,98940.31
2022-11-11T13:00:26.213Z,98943.06
2022-11-11T13:03:54.497Z,98946.00
2022-11-11T13:07:40.602Z,98947.91
2022-11-11T13:11:15.491Z,98929.84
2022-11-11T13:14:42.321Z,98926.00
2022-11-11T13:17:46.877Z,98907.50
2022-11-11T13:21:01.408Z,98901.75
2022-11-11T13:24:12.564Z,98900.59
2022-11-11T13:27:20.323Z,98902.66
2022-11-11T13:30:53.538Z,98914.53
2022-11-11T13:34:04.977Z,98916.00
2022-11-11T13:37:21.791Z,98919.28
2022-11-11T13:40:45.950Z,98913.63
2022-11-11T13:43:52.746Z,98916.28
2022-11-11T13:47:07.209Z,98904.22
2022-11-11T13:50:26.246Z,98912.72
2022-11-11T13:53:32.379Z,98915.34
2022-11-11T13:56:46.374Z,98913.09
2022-11-11T14:00:00.689Z,98906.75
2022-11-11T14:03:33.127Z,98912.44
2022-11-11T14:06:51.222Z,98900.59
2022-11-11T14:10:02.720Z,98911.63
2022-11-11T14:13:24.061Z,98912.78
2022-11-11T14:16:37.464Z,98906.22
2022-11-11T14:19:41.665Z,98919.91
2022-11-11T14:22:45.876Z,98920.56
2022-11-11T14:25:52.260Z,98918.91
2022-11-11T14:29:04.503Z,98906.69
2022-11-11T14:32:08.723Z,98899.75
2022-11-11T14:35:29.231Z,98892.81
2022-11-11T14:38:39.408Z,98890.34
2022-11-11T14:41:52.880Z,98883.41
2022-11-11T14:44:57.270Z,98882.13
2022-11-11T14:48:01.324Z,98881.84
2022-11-11T14:51:38.536Z,98883.59
2022-11-11T14:54:52.120Z,98897.16
2022-11-11T14:58:14.477Z,98904.97
2022-11-11T15:01:20.848Z,98895.91
2022-11-11T15:04:27.430Z,98890.88
2022-11-11T15:07:40.603Z,98885.84
2022-11-11T15:11:12.730Z,98889.56
2022-11-11T15:14:29.180Z,98884.34
2022-11-11T15:17:49.803Z,98889.34
2022-11-11T15:21:09.199Z,98895.34
2022-11-11T15:24:34.104Z,98892.56
2022-11-11T15:27:58.575Z,98898.53
2022-11-11T15:31:23.717Z,98901.88
2022-11-11T15:34:40.487Z,98896.53
2022-11-11T15:37:57.481Z,98893.75
2022-11-11T15:41:02.367Z,98883.75
2022-11-11T15:44:18.250Z,98893.06
2022-11-11T15:47:24.566Z,98894.09
2022-11-11T15:50:36.971Z,98890.66
2022-11-11T15:53:41.239Z,98884.28
2022-11-11T15:56:45.619Z,98881.03
2022-11-11T15:59:50.101Z,98882.06
2022-11-11T16:02:56.473Z,98891.63
2022-11-11T16:06:04.182Z,98892.28
2022-11-11T16:09:12.952Z,98884.06
2022-11-11T16:12:24.287Z,98893.47
2022-11-11T16:15:40.862Z,98886.06
2022-11-11T16:18:54.760Z,98888.69
2022-11-11T16:22:21.534Z,98883.44
2022-11-11T16:25:26.452Z,98887.72
2022-11-11T16:28:46.885Z,98880.28
2022-11-11T16:31:51.438Z,98885.34
2022-11-11T16:34:57.372Z,98892.13
2022-11-11T16:38:04.037Z,98902.97
2022-11-11T16:41:28.564Z,98889.28
2022-11-11T16:44:44.261Z,98892.06
2022-11-11T16:47:49.781Z,98895.66
2022-11-11T16:51:02.075Z,98894.50
2022-11-11T16:54:17.463Z,98892.81
2022-11-11T16:57:30.113Z,98904.97
2022-11-11T17:00:34.964Z,98904.94
2022-11-11T17:03:53.559Z,98900.59
2022-11-11T17:07:02.251Z,98900.44
2022-11-11T17:10:18.173Z,98903.97
2022-11-11T17:13:22.814Z,98909.53
2022-11-11T17:16:27.473Z,98909.34
2022-11-11T17:19:33.330Z,98907.97
2022-11-11T17:22:37.768Z,98903.34
2022-11-11T17:25:41.956Z,98900.50
2022-11-11T17:28:46.236Z,98899.31
2022-11-11T17:31:50.929Z,98886.44
2022-11-11T17:34:55.448Z,98892.91
2022-11-11T17:37:59.881Z,98901.53
2022-11-11T17:41:04.648Z,98898.56
2022-11-11T17:44:09.139Z,98912.13
2022-11-11T17:47:13.641Z,98912.09
2022-11-11T17:50:18.006Z,98907.88
2022-11-11T17:53:22.373Z,98903.22
2022-11-11T17:56:27.021Z,98911.72
2022-11-11T17:59:31.299Z,98916.44
2022-11-11T18:02:35.812Z,98915.75
2022-11-11T18:05:40.206Z,98914.41
2022-11-11T18:08:44.633Z,98915.97
2022-11-11T18:11:49.104Z,98918.06
2022-11-11T18:14:53.492Z,98920.44
2022-11-11T18:17:58.057Z,98911.66
2022-11-11T18:21:04.813Z,98915.38
2022-11-11T18:24:10.708Z,98918.44
2022-11-11T18:27:16.177Z,98912.44
2022-11-11T18:30:22.411Z,98913.16
2022-11-11T18:33:27.079Z,98918.00
2022-11-11T18:36:31.823Z,98919.28
2022-11-11T18:39:36.109Z,98914.03
2022-11-11T18:42:40.573Z,98920.25
2022-11-11T18:45:44.946Z,98918.03
2022-11-11T18:48:49.288Z,98922.25
2022-11-11T18:51:54.054Z,98928.56
2022-11-11T18:54:58.484Z,98921.97
2022-11-11T18:58:03.346Z,98923.94
2022-11-11T19:01:22.030Z,98924.78
2022-11-11T19:04:27.191Z,98932.25
2022-11-11T19:07:31.302Z,98931.03
2022-11-11T19:10:35.797Z,98927.84
2022-11-11T19:13:40.371Z,98931.44
2022-11-11T19:16:47.410Z,98928.81
2022-11-11T19:19:55.450Z,98925.66
2022-11-11T19:22:59.993Z,98925.81
2022-11-11T19:26:04.983Z,98928.69
2022-11-11T19:29:10.372Z,98930.09
2022-11-11T19:32:14.560Z,98934.09
2022-11-11T19:35:19.100Z,98937.53
2022-11-11T19:38:23.253Z,98934.22
2022-11-11T19:41:29.667Z,98937.25
2022-11-11T19:44:34.133Z,98941.13
2022-11-11T19:47:38.324Z,98938.91
2022-11-11T19:50:43.185Z,98938.53
2022-11-11T19:53:51.289Z,98934.25
2022-11-11T19:56:59.234Z,98932.19
2022-11-11T20:00:04.206Z,98940.56
2022-11-11T20:03:08.829Z,98948.84
2022-11-11T20:06:35.025Z,98959.56
2022-11-11T20:09:39.645Z,98960.66
2022-11-11T20:12:44.189Z,98962.88
2022-11-11T20:15:48.331Z,98960.94
2022-11-11T20:18:56.971Z,98958.47
2022-11-11T20:22:05.939Z,98952.94
2022-11-11T20:25:10.497Z,98962.69
2022-11-11T20:28:14.911Z,98963.69
2022-11-11T20:31:19.488Z,98969.16
2022-11-11T20:34:23.522Z,98973.59
2022-11-11T20:37:27.790Z,98975.88
2022-11-11T20:40:32.360Z,98966.34
2022-11-11T20:43:37.129Z,98972.53
2022-11-11T20:46:41.588Z,98972.78
2022-11-11T20:49:47.716Z,98972.94
2022-11-11T20:52:52.348Z,98974.84
2022-11-11T20:56:06.291Z,98974.84
2022-11-11T20:59:10.592Z,98965.19
2022-11-11T21:02:18.619Z,98952.13
2022-11-11T21:05:27.037Z,98955.00
2022-11-11T21:08:33.213Z,98964.09
2022-11-11T21:11:38.871Z,98966.81
2022-11-11T21:14:44.950Z,98967.09
2022-11-11T21:17:48.975Z,98965.69
2022-11-11T21:20:53.347Z,98961.69
2022-11-11T21:24:03.214Z,98962.19
2022-11-11T21:27:07.682Z,98964.38
2022-11-11T21:30:12.190Z,98973.44
2022-11-11T21:33:16.545Z,98970.94
2022-11-11T21:36:23.341Z,98971.09
2022-11-11T21:39:27.554Z,98966.94
2022-11-11T21:42:31.739Z,98961.16
2022-11-11T21:45:36.057Z,98962.25
2022-11-11T21:48:40.599Z,98961.66
2022-11-11T21:51:44.828Z,98961.34
2022-11-11T21:54:50.354Z,98960.75
2022-11-11T21:57:54.750Z,98956.63
2022-11-11T22:01:16.713Z,98957.47
2022-11-11T22:04:20.984Z,98959.13
2022-11-11T22:07:27.113Z,98961.16
2022-11-11T22:10:31.796Z,98966.91
2022-11-11T22:13:38.047Z,98969.63
2022-11-11T22:16:42.519Z,98975.22
2022-11-11T22:19:46.584Z,98973.81
2022-11-11T22:22:50.870Z,98971.34
2022-11-11T22:26:00.156Z,98977.53
2022-11-11T22:29:05.167Z,98971.59
2022-11-11T22:32:09.469Z,98966.19
2022-11-11T22:35:14.190Z,98965.03
2022-11-11T22:38:18.913Z,98967.16
2022-11-11T22:41:28.930Z,98969.22
2022-11-11T22:44:33.266Z,98973.72
2022-11-11T22:47:37.473Z,98971.34
2022-11-11T22:50:41.827Z,98974.22
2022-11-11T22:53:46.620Z,98972.44
2022-11-11T22:56:51.307Z,98966.53
2022-11-11T22:59:59.047Z,98964.97
2022-11-11T23:03:03.885Z,98961.81
2022-11-11T23:06:10.069Z,98962.03
2022-11-11T23:09:14.627Z,98957.06
2022-11-11T23:12:19.114Z,98949.50
2022-11-11T23:15:23.325Z,98950.44
2022-11-11T23:18:28.411Z,98954.72
2022-11-11T23:21:33.290Z,98959.22
2022-11-11T23:24:37.985Z,98960.28
2022-11-11T23:27:42.191Z,98960.66
2022-11-11T23:30:46.888Z,98958.44
2022-11-11T23:33:53.797Z,98958.31
2022-11-11T23:36:57.927Z,98954.03
2022-11-11T23:40:02.719Z,98952.16
2022-11-11T23:43:07.190Z,98943.38
2022-11-11T23:46:11.853Z,98944.31
2022-11-11T23:49:16.326Z,98939.78
2022-11-11T23:52:20.678Z,98934.22
2022-11-11T23:55:25.187Z,98925.28
2022-11-11T23:58:30.051Z,98926.00
